Glen Cove, ME

7:33 AM EDT on August 30, 2014 (GMT -0400)
Knox County Regional | Change Station
CLOSE
Current Station
Airport
Location: Rockland,
Elevation: 56 ft
Nearby Weather Stations

Elev 56 ft 44.06 °N, 69.10 °W | Updated 18 minutes ago

Scattered Clouds
Scattered Clouds
54 °F
Feels Like 54 °F
N
0
Wind Variable Wind from North

Today
High -- | Low -- °F
--% Chance of Precip.
Yesterday
High -- | Low -- °F
Precip. -- in
5:57 AM 7:16 PM
Waxing Crescent, 21% visible
Pressure 30.29 in
Visibility 10.0 miles
Clouds Scattered Clouds 3600 ft
Dew Point 54 °F
Humidity 100%
Rainfall 0.00 in
Snow Depth Not available.
UV 1 out of 12
Pollen 6.80 out of 12
Ozone Good
Flu Activity Not available.
METAR KRKD 301115Z AUTO 00000KT 10SM SCT036 12/12 A3029 RMK AO1

More Conditions Fewer Conditions

Pressure 30.29 in
Visibility 10.0 miles
Clouds Scattered Clouds 3600 ft
Dew Point 54 °F
Humidity 100%
Rainfall 0.00 in
Snow Depth Not available.
UV 1 out of 12
Pollen 6.80 out of 12
Ozone Good
Flu Activity Not available.
METAR KRKD 301115Z AUTO 00000KT 10SM SCT036 12/12 A3029 RMK AO1

More Conditions Fewer Conditions

10-Day Weather Forecast

Almanac

Astronomy

Aug. 30, 2014 Rise Set
Actual Time 5:57 AM EDT 7:16 PM EDT
Civil Twilight 5:27 AM EDT 7:45 PM EDT
Nautical Twilight 4:51 AM EDT 8:21 PM EDT
Astronomical Twilight 4:12 AM EDT 8:59 PM EDT
Moon 10:52 AM EDT 9:36 PM EDT
Length of Visible Light 14h 18m
Length of Day
13h 18m
Tomorrow will be 2m 53s shorter.
Waxing Crescent, 21% of the Moon is Illuminated
Today
Waxing Crescent
Sep 2
First Quarter
Sep 8
Full
Sep 15
Last Quarter
Sep 24
New

Today's Extremes

State Highs State Lows

Community

WunderPhotos

Upload Photos

1,748,492 photos uploaded!

WunderBlogs® & News

By Dr. Jeff Masters
Director of Meteorology, Weather Underground
By Kari Strenfel
Meteorologist, Weather Underground
By Christopher C. Burt
Weather Historian, Weather Underground
August 30, 2014
August 30, 2014
August 30, 2014

Nearby

Air Quality

  Air Quality AQ Index Pollutant
Yesterday Good
OZONE
Current Good
OZONE
Saturday Good
OZONE
Saturday Good
PM2.5
Sunday Good
OZONE
Sunday Good
PM2.5
Monday Good
OZONE
Monday Good
PM2.5
Tuesday Good
OZONE
Tuesday Good
PM2.5
Wednesday Good
OZONE
Wednesday Good
PM2.5

Snow Depth

Station Depth Elevation
No new snow has been reported.

Earthquake Activity

City Distance Mag. Time & Date
No recent earthquake activity has been reported nearby.
Minimum magnitude displayed is 2.5.

Coastal Water Temperatures

Place Temperature
Bar Harbor, ME 60.1 °F
Portland, ME 60.1 °F

Nearby Weather Stations